createdAt,value
2023-01-03T00:01:59.284Z,2.20
2023-01-03T00:04:26.191Z,1.98
2023-01-03T00:06:53.968Z,2.03
2023-01-03T00:09:23.129Z,1.80
2023-01-03T00:12:10.443Z,2.40
2023-01-03T00:14:39.516Z,2.38
2023-01-03T00:17:07.737Z,2.03
2023-01-03T00:19:40.804Z,1.90
2023-01-03T00:22:08.123Z,2.05
2023-01-03T00:24:34.985Z,1.83
2023-01-03T00:27:01.717Z,2.10
2023-01-03T00:29:28.333Z,1.63
2023-01-03T00:31:54.819Z,1.80
2023-01-03T00:34:21.338Z,2.45
2023-01-03T00:36:48.089Z,1.77
2023-01-03T00:39:14.882Z,1.63
2023-01-03T00:41:41.704Z,1.88
2023-01-03T00:44:08.331Z,1.70
2023-01-03T00:46:35.438Z,2.53
2023-01-03T00:49:02.529Z,1.60
2023-01-03T00:51:31.409Z,2.55
2023-01-03T00:53:59.745Z,1.77
2023-01-03T00:56:29.218Z,1.38
2023-01-03T00:58:56.234Z,1.42
2023-01-03T01:01:39.194Z,1.33
2023-01-03T01:04:24.061Z,1.70
2023-01-03T01:06:53.675Z,1.80
2023-01-03T01:09:25.520Z,1.33
2023-01-03T01:11:52.598Z,1.73
2023-01-03T01:14:21.561Z,1.40
2023-01-03T01:16:52.586Z,1.70
2023-01-03T01:19:21.715Z,1.02
2023-01-03T01:21:48.511Z,1.70
2023-01-03T01:24:18.101Z,1.38
2023-01-03T01:26:45.710Z,1.83
2023-01-03T01:29:13.609Z,1.48
2023-01-03T01:31:40.580Z,2.10
2023-01-03T01:34:07.585Z,1.95
2023-01-03T01:36:37.552Z,1.83
2023-01-03T01:39:06.773Z,1.60
2023-01-03T01:41:53.920Z,1.65
2023-01-03T01:44:45.157Z,1.80
2023-01-03T01:47:17.918Z,1.35
2023-01-03T01:49:46.959Z,1.92
2023-01-03T01:52:16.583Z,3.58
2023-01-03T01:54:43.754Z,2.00
2023-01-03T01:57:15.668Z,2.15
2023-01-03T01:59:42.674Z,1.85
2023-01-03T02:02:11.471Z,2.17
2023-01-03T02:04:40.364Z,1.70
2023-01-03T02:07:25.110Z,1.52
2023-01-03T02:09:55.944Z,2.13
2023-01-03T02:12:48.929Z,2.30
2023-01-03T02:15:34.093Z,1.77
2023-01-03T02:18:22.312Z,1.38
2023-01-03T02:21:20.194Z,1.20
2023-01-03T02:24:07.167Z,1.20
2023-01-03T02:26:33.549Z,1.33
2023-01-03T02:29:18.159Z,1.83
2023-01-03T02:32:16.948Z,0.77
2023-01-03T02:34:48.163Z,1.30
2023-01-03T02:37:29.471Z,1.40
2023-01-03T02:40:12.876Z,0.93
2023-01-03T02:43:02.481Z,1.08
2023-01-03T02:45:56.064Z,0.93
2023-01-03T02:48:43.890Z,1.30
2023-01-03T02:51:19.099Z,1.20
2023-01-03T02:53:48.968Z,1.20
2023-01-03T02:56:21.236Z,1.83
2023-01-03T02:58:52.954Z,1.65
2023-01-03T03:01:20.736Z,1.38
2023-01-03T03:03:48.403Z,1.30
2023-01-03T03:06:26.299Z,1.08
2023-01-03T03:08:52.833Z,1.08
2023-01-03T03:11:37.867Z,1.30
2023-01-03T03:14:14.928Z,0.90
2023-01-03T03:16:49.259Z,1.10
2023-01-03T03:19:54.138Z,1.13
2023-01-03T03:23:09.223Z,1.30
2023-01-03T03:25:51.941Z,1.38
2023-01-03T03:28:35.914Z,1.52
2023-01-03T03:31:11.396Z,1.27
2023-01-03T03:33:49.173Z,1.42
2023-01-03T03:36:40.489Z,1.50
2023-01-03T03:39:29.663Z,2.05
2023-01-03T03:42:28.853Z,1.50
2023-01-03T03:45:02.155Z,1.65
2023-01-03T03:47:44.286Z,1.55
2023-01-03T03:52:58.009Z,1.73
2023-01-03T03:58:01.107Z,1.10
2023-01-03T04:00:32.829Z,1.65
2023-01-03T04:03:02.588Z,1.27
2023-01-03T04:05:34.706Z,1.23
2023-01-03T04:08:01.191Z,1.30
2023-01-03T04:10:30.170Z,2.03
2023-01-03T04:13:00.607Z,1.30
2023-01-03T04:15:27.092Z,1.42
2023-01-03T04:17:53.562Z,1.20
2023-01-03T04:20:20.284Z,1.55
2023-01-03T04:22:46.824Z,1.80
2023-01-03T04:25:13.335Z,1.67
2023-01-03T04:27:39.877Z,1.60
2023-01-03T04:30:07.145Z,2.20
2023-01-03T04:32:33.647Z,1.92
2023-01-03T04:35:00.127Z,1.33
2023-01-03T04:37:26.557Z,1.60
2023-01-03T04:39:53.021Z,1.88
2023-01-03T04:42:38.302Z,2.50
2023-01-03T04:45:05.406Z,1.90
2023-01-03T04:47:31.950Z,2.00
2023-01-03T04:49:58.481Z,2.25
2023-01-03T04:52:25.024Z,2.00
2023-01-03T04:54:51.482Z,2.13
2023-01-03T06:54:59.159Z,2.25
2023-01-03T06:57:27.220Z,2.92
2023-01-03T06:59:54.820Z,2.92
2023-01-03T07:02:21.684Z,3.03
2023-01-03T07:04:48.333Z,2.40
2023-01-03T07:07:14.999Z,3.03
2023-01-03T07:09:41.565Z,2.55
2023-01-03T07:12:30.820Z,2.85
2023-01-03T07:14:57.382Z,2.65
2023-01-03T07:17:23.859Z,2.83
2023-01-03T07:19:50.322Z,2.75
2023-01-03T07:22:16.783Z,3.67
2023-01-03T07:24:43.219Z,2.92
2023-01-03T07:27:09.684Z,3.55
2023-01-03T07:29:36.143Z,3.20
2023-01-03T07:32:02.684Z,3.20
2023-01-03T07:34:29.130Z,3.00
2023-01-03T07:36:55.657Z,3.50
2023-01-03T07:39:22.190Z,3.40
2023-01-03T07:42:07.051Z,3.20
2023-01-03T07:44:33.463Z,3.47
2023-01-03T07:46:59.898Z,4.30
2023-01-03T07:49:26.395Z,4.15
2023-01-03T07:51:52.884Z,3.75
2023-01-03T07:54:19.424Z,3.08
2023-01-03T07:56:45.904Z,4.13
2023-01-03T07:59:12.391Z,3.55
2023-01-03T08:01:38.958Z,3.80
2023-01-03T08:04:05.559Z,4.65
2023-01-03T08:06:33.055Z,5.20
2023-01-03T08:09:18.357Z,4.63
2023-01-03T08:12:03.353Z,3.80
2023-01-03T08:14:29.831Z,3.70
2023-01-03T08:16:56.592Z,3.47
2023-01-03T08:19:24.192Z,3.72
2023-01-03T08:21:51.239Z,3.70
2023-01-03T08:24:17.757Z,3.42
2023-01-03T08:26:44.268Z,3.55
2023-01-03T08:29:11.572Z,4.43
2023-01-03T08:31:43.002Z,3.70
2023-01-03T08:34:18.526Z,3.75
2023-01-03T08:36:51.762Z,4.10
2023-01-03T08:39:24.153Z,4.07
2023-01-03T08:41:55.706Z,3.85
2023-01-03T08:46:51.391Z,4.60
2023-01-03T08:49:19.197Z,4.18
2023-01-03T08:51:45.880Z,4.68
2023-01-03T08:54:12.415Z,3.67
2023-01-03T08:56:39.672Z,3.58
2023-01-03T08:59:06.221Z,3.30
2023-01-03T09:01:32.897Z,3.60
2023-01-03T09:03:59.531Z,3.20
2023-01-03T16:07:10.868Z,9.57
2023-01-03T16:33:49.707Z,11.10
2023-01-03T17:35:33.765Z,16.17
2023-01-03T17:38:27.548Z,14.68
2023-01-03T17:40:49.084Z,14.57
2023-01-03T18:10:21.493Z,15.38
2023-01-03T18:33:08.846Z,17.02
2023-01-03T18:35:37.983Z,17.15
2023-01-03T18:38:05.544Z,17.48
2023-01-03T18:40:32.155Z,18.27
2023-01-03T18:43:09.807Z,19.20
2023-01-03T18:45:37.729Z,17.80
2023-01-03T18:48:04.663Z,18.88
2023-01-03T18:50:31.726Z,19.33
2023-01-03T18:53:04.280Z,17.35
2023-01-03T18:55:33.710Z,18.75
2023-01-03T18:58:35.297Z,18.63
2023-01-03T19:01:01.979Z,18.92
2023-01-03T19:03:31.869Z,18.73
2023-01-03T19:06:00.680Z,18.35
2023-01-03T19:08:31.775Z,19.52
2023-01-03T19:11:05.432Z,18.35
2023-01-03T19:13:50.262Z,20.00
2023-01-03T19:16:26.508Z,20.23
2023-01-03T19:18:53.646Z,20.92
2023-01-03T19:21:21.656Z,20.55
2023-01-03T19:23:57.574Z,20.92
2023-01-03T19:26:38.558Z,21.05
2023-01-03T19:29:11.537Z,20.90
2023-01-03T19:31:44.189Z,20.80
2023-01-03T19:34:22.691Z,19.20
2023-01-03T19:36:49.719Z,18.85
2023-01-03T19:39:22.384Z,18.20
2023-01-03T19:42:13.353Z,17.55
2023-01-03T19:44:40.335Z,18.20
2023-01-03T19:47:12.775Z,18.25
2023-01-03T19:49:39.230Z,18.42
2023-01-03T19:52:05.658Z,17.25
2023-01-03T19:54:32.080Z,17.17
2023-01-03T19:57:01.904Z,18.17
2023-01-03T19:59:35.003Z,17.00
2023-01-03T20:04:50.123Z,15.65
2023-01-03T20:07:16.764Z,16.83
2023-01-03T20:09:43.225Z,16.85
2023-01-03T20:12:15.404Z,16.08
2023-01-03T20:14:49.142Z,16.23
2023-01-03T20:17:23.359Z,16.25
2023-01-03T20:19:50.626Z,15.02
2023-01-03T20:23:02.404Z,14.55
2023-01-03T20:25:31.470Z,14.50
2023-01-03T20:27:59.689Z,13.48
2023-01-03T20:30:29.485Z,13.80
2023-01-03T20:32:56.687Z,13.55
2023-01-03T20:38:12.330Z,14.32
2023-01-03T20:40:39.342Z,13.13
2023-01-03T20:43:05.989Z,12.65
2023-01-03T20:45:33.278Z,14.95
2023-01-03T20:48:00.240Z,13.80
2023-01-03T20:50:28.577Z,13.05
2023-01-03T20:52:55.885Z,13.38
2023-01-03T20:55:23.783Z,13.00
2023-01-03T20:57:50.552Z,14.02
2023-01-03T21:00:24.339Z,13.88
2023-01-03T21:02:51.859Z,13.18
2023-01-03T21:05:18.975Z,13.68
2023-01-03T21:08:04.727Z,12.85
2023-01-03T21:10:36.499Z,13.43
2023-01-03T21:13:03.085Z,13.07
2023-01-03T21:15:29.681Z,14.35
2023-01-03T21:17:56.120Z,13.98
2023-01-03T21:20:24.840Z,13.68
2023-01-03T21:22:52.023Z,13.68
2023-01-03T21:25:26.165Z,12.93
2023-01-03T21:27:53.011Z,12.63
2023-01-03T21:30:21.337Z,12.93
2023-01-03T21:32:48.098Z,12.52
2023-01-03T21:35:22.558Z,12.05
2023-01-03T21:37:51.311Z,13.27
2023-01-03T21:40:26.875Z,12.32
2023-01-03T21:43:03.603Z,11.55
2023-01-03T21:45:35.121Z,12.13
2023-01-03T21:48:04.651Z,11.95
2023-01-03T21:50:32.109Z,11.88
2023-01-03T21:52:58.986Z,12.88
2023-01-03T21:55:26.078Z,12.05
2023-01-03T21:57:52.658Z,12.32
2023-01-03T22:00:19.292Z,11.30
2023-01-03T22:03:05.284Z,10.57
2023-01-03T22:05:32.352Z,11.32
2023-01-03T22:08:00.704Z,11.88
2023-01-03T22:10:28.508Z,10.90
2023-01-03T22:13:03.390Z,9.98
2023-01-03T22:15:29.895Z,9.77
2023-01-03T22:17:57.106Z,10.02
2023-01-03T22:20:25.785Z,10.93
2023-01-03T22:22:52.832Z,9.32
2023-01-03T22:25:22.106Z,9.88
2023-01-03T22:27:48.981Z,9.90
2023-01-03T22:30:18.285Z,11.02
2023-01-03T22:32:44.918Z,9.63
2023-01-03T22:35:13.431Z,9.27
2023-01-03T22:37:40.647Z,9.82
2023-01-03T22:40:15.230Z,9.45
2023-01-03T22:42:41.799Z,10.10
2023-01-03T22:45:09.701Z,8.70
2023-01-03T22:47:37.276Z,9.60
2023-01-03T22:50:07.891Z,9.77
2023-01-03T22:52:38.355Z,9.17
2023-01-03T22:55:05.352Z,9.82
2023-01-03T22:57:31.807Z,9.80
2023-01-03T22:59:58.276Z,9.57
2023-01-03T23:02:28.861Z,10.48
2023-01-03T23:04:56.015Z,8.93
2023-01-03T23:07:22.502Z,10.13
2023-01-03T23:09:48.987Z,8.65
2023-01-03T23:12:34.246Z,9.90
2023-01-03T23:15:00.689Z,9.65
2023-01-03T23:17:45.825Z,9.20
2023-01-03T23:20:12.425Z,9.05
2023-01-03T23:22:38.920Z,9.38
2023-01-03T23:25:06.002Z,9.45
2023-01-03T23:27:32.447Z,9.23
2023-01-03T23:29:58.909Z,9.50
2023-01-03T23:32:25.368Z,9.48
2023-01-03T23:34:51.845Z,9.13
2023-01-03T23:37:18.351Z,9.45
2023-01-03T23:39:44.822Z,9.02
2023-01-03T23:42:11.274Z,9.77
2023-01-03T23:44:37.748Z,9.75
2023-01-03T23:47:10.997Z,9.48
2023-01-03T23:49:38.160Z,9.30
2023-01-03T23:52:04.609Z,8.98
2023-01-03T23:54:31.089Z,9.30
2023-01-03T23:56:57.657Z,9.07
2023-01-03T23:59:24.105Z,9.07
